createdAt,value
2022-11-17T00:01:52.959Z,8.90
2022-11-17T00:04:26.163Z,9.20
2022-11-17T00:06:56.999Z,9.77
2022-11-17T00:09:29.965Z,10.73
2022-11-17T00:12:22.459Z,10.73
2022-11-17T00:14:54.462Z,10.35
2022-11-17T00:17:25.802Z,9.75
2022-11-17T00:20:14.795Z,11.00
2022-11-17T00:22:45.574Z,11.15
2022-11-17T00:25:16.737Z,10.30
2022-11-17T00:27:47.648Z,10.80
2022-11-17T00:30:38.300Z,11.30
2022-11-17T00:33:28.764Z,10.93
2022-11-17T00:35:59.360Z,10.48
2022-11-17T00:38:30.220Z,9.73
2022-11-17T00:41:01.329Z,9.27
2022-11-17T00:43:31.719Z,10.27
2022-11-17T00:46:02.581Z,11.48
2022-11-17T00:48:36.286Z,10.20
2022-11-17T00:51:07.953Z,10.43
2022-11-17T00:53:38.510Z,9.75
2022-11-17T00:56:11.916Z,10.27
2022-11-17T00:58:42.388Z,10.00
2022-11-17T01:01:13.492Z,8.57
2022-11-17T01:03:44.632Z,9.55
2022-11-17T01:06:21.279Z,7.68
2022-11-17T01:08:53.124Z,8.40
2022-11-17T01:11:23.926Z,8.77
2022-11-17T01:13:58.211Z,7.40
2022-11-17T01:16:30.419Z,7.50
2022-11-17T01:19:04.395Z,8.75
2022-11-17T01:21:35.848Z,7.25
2022-11-17T01:24:07.021Z,9.23
2022-11-17T01:26:38.480Z,6.35
2022-11-17T01:29:10.120Z,6.85
2022-11-17T01:31:44.350Z,8.52
2022-11-17T01:34:15.187Z,7.70
2022-11-17T01:37:04.945Z,7.53
2022-11-17T01:39:35.560Z,9.10
2022-11-17T01:42:11.600Z,8.63
2022-11-17T01:44:56.283Z,9.10
2022-11-17T01:47:56.583Z,11.32
2022-11-17T01:50:41.493Z,13.98
2022-11-17T01:53:16.334Z,14.38
2022-11-17T01:55:53.247Z,15.02
2022-11-17T01:58:30.317Z,16.02
2022-11-17T02:01:00.684Z,14.90
2022-11-17T02:03:35.484Z,15.80
2022-11-17T02:06:25.766Z,16.20
2022-11-17T02:08:56.810Z,18.05
2022-11-17T02:11:27.738Z,15.88
2022-11-17T02:13:58.947Z,16.15
2022-11-17T02:16:29.244Z,15.55
2022-11-17T02:18:59.938Z,18.38
2022-11-17T02:21:54.082Z,16.98
2022-11-17T02:24:38.697Z,17.42
2022-11-17T02:27:27.293Z,18.50
2022-11-17T02:30:05.381Z,18.80
2022-11-17T02:32:54.143Z,18.90
2022-11-17T02:35:36.696Z,19.02
2022-11-17T02:38:25.040Z,21.45
2022-11-17T02:41:31.041Z,19.80
2022-11-17T02:44:26.389Z,19.10
2022-11-17T02:47:03.364Z,16.67
2022-11-17T02:49:41.659Z,14.10
2022-11-17T02:52:12.319Z,12.45
2022-11-17T02:54:43.171Z,10.95
2022-11-17T02:57:30.496Z,11.15
2022-11-17T03:00:05.583Z,10.27
2022-11-17T03:02:52.586Z,10.43
2022-11-17T03:06:00.706Z,9.90
2022-11-17T03:08:52.006Z,10.05
2022-11-17T03:11:30.001Z,8.55
2022-11-17T03:14:11.316Z,9.68
2022-11-17T03:17:11.655Z,10.68
2022-11-17T03:20:09.276Z,11.27
2022-11-17T03:22:56.994Z,10.43
2022-11-17T03:25:32.916Z,11.40
2022-11-17T03:28:07.770Z,10.98
2022-11-17T03:30:41.006Z,10.13
2022-11-17T03:33:21.124Z,9.27
2022-11-17T03:36:02.969Z,7.68
2022-11-17T03:38:39.054Z,8.25
2022-11-17T03:41:11.146Z,9.90
2022-11-17T03:43:42.649Z,7.88
2022-11-17T03:46:16.498Z,7.07
2022-11-17T03:49:02.100Z,8.07
2022-11-17T03:51:34.445Z,8.90
2022-11-17T03:54:05.662Z,6.43
2022-11-17T03:56:45.545Z,6.38
2022-11-17T03:59:22.543Z,5.78
2022-11-17T04:01:53.661Z,4.65
2022-11-17T04:04:24.678Z,5.10
2022-11-17T04:06:55.649Z,5.32
2022-11-17T04:09:29.640Z,5.72
2022-11-17T04:12:18.959Z,4.53
2022-11-17T04:15:07.349Z,4.45
2022-11-17T04:17:38.969Z,5.70
2022-11-17T04:20:10.479Z,4.82
2022-11-17T04:22:41.055Z,5.20
2022-11-17T04:25:31.691Z,5.10
2022-11-17T04:28:21.066Z,5.53
2022-11-17T04:30:51.481Z,6.10
2022-11-17T04:33:22.136Z,6.22
2022-11-17T04:35:52.643Z,6.53
2022-11-17T04:38:23.432Z,5.47
2022-11-17T04:41:12.945Z,4.97
2022-11-17T04:43:44.359Z,5.45
2022-11-17T04:46:15.265Z,6.00
2022-11-17T04:48:46.449Z,5.70
2022-11-17T04:51:18.460Z,5.25
2022-11-17T04:53:50.031Z,5.65
2022-11-17T04:56:21.975Z,4.70
2022-11-17T04:58:53.188Z,4.95
2022-11-17T05:01:25.197Z,4.82
2022-11-17T05:03:56.373Z,4.28
2022-11-17T05:06:27.918Z,3.78
2022-11-17T05:08:58.490Z,3.70
2022-11-17T05:11:48.292Z,6.03
2022-11-17T05:14:22.022Z,4.28
2022-11-17T05:17:12.018Z,4.15
2022-11-17T05:19:47.929Z,4.32
2022-11-17T05:22:38.940Z,4.18
2022-11-17T05:25:10.161Z,25.58
2022-11-17T05:27:40.871Z,4.95
2022-11-17T05:30:12.405Z,4.10
2022-11-17T05:32:43.229Z,5.82
2022-11-17T05:35:13.628Z,4.10
2022-11-17T05:37:44.513Z,3.40
2022-11-17T05:40:14.851Z,3.22
2022-11-17T05:42:45.737Z,4.68
2022-11-17T05:45:16.794Z,3.85
2022-11-17T05:47:47.407Z,4.65
2022-11-17T05:50:20.164Z,10.75
2022-11-17T05:52:50.658Z,3.22
2022-11-17T05:55:21.631Z,4.03
2022-11-17T05:57:52.967Z,3.45
2022-11-17T06:00:23.575Z,3.92
2022-11-17T06:03:01.172Z,3.28
2022-11-17T06:05:32.529Z,3.03
2022-11-17T06:08:03.699Z,3.28
2022-11-17T06:10:36.051Z,2.97
2022-11-17T06:13:06.900Z,3.30
2022-11-17T06:15:38.003Z,3.50
2022-11-17T06:18:13.151Z,3.10
2022-11-17T06:20:49.661Z,3.75
2022-11-17T06:23:22.214Z,3.40
2022-11-17T06:25:53.199Z,2.70
2022-11-17T06:28:24.218Z,3.70
2022-11-17T06:30:55.318Z,4.38
2022-11-17T06:33:26.971Z,9.32
2022-11-17T06:35:58.499Z,5.38
2022-11-17T06:38:30.356Z,5.25
2022-11-17T06:41:01.026Z,3.83
2022-11-17T06:43:33.600Z,3.40
2022-11-17T06:46:06.571Z,3.35
2022-11-17T06:48:40.987Z,3.30
2022-11-17T06:51:11.574Z,3.33
2022-11-17T06:53:42.686Z,3.30
2022-11-17T06:56:15.008Z,6.50
2022-11-17T06:58:46.285Z,4.88
2022-11-17T07:01:19.916Z,6.38
2022-11-17T07:03:50.576Z,5.70
2022-11-17T07:06:21.304Z,8.60
2022-11-17T07:08:52.711Z,9.63
2022-11-17T07:11:23.078Z,10.30
2022-11-17T07:13:54.028Z,8.90
2022-11-17T07:16:24.603Z,8.45
2022-11-17T07:18:56.216Z,5.07
2022-11-17T07:21:27.739Z,3.80
2022-11-17T07:23:58.057Z,3.50
2022-11-17T07:26:29.281Z,3.70
2022-11-17T07:28:59.679Z,3.17
2022-11-17T07:31:30.561Z,3.10
2022-11-17T07:34:00.956Z,2.78
2022-11-17T07:36:31.616Z,3.40
2022-11-17T07:39:02.571Z,3.85
2022-11-17T07:41:34.080Z,4.93
2022-11-17T07:44:05.183Z,3.85
2022-11-17T07:46:36.842Z,3.78
2022-11-17T07:49:07.476Z,4.78
2022-11-17T07:51:38.094Z,5.55
2022-11-17T07:54:08.491Z,4.25
2022-11-17T07:56:39.112Z,3.58
2022-11-17T07:59:09.960Z,4.10
2022-11-17T08:01:41.048Z,4.43
2022-11-17T08:04:12.640Z,4.45
2022-11-17T08:06:42.956Z,4.18
2022-11-17T08:09:15.258Z,6.93
2022-11-17T08:11:47.214Z,5.10
2022-11-17T08:14:17.961Z,4.32
2022-11-17T08:16:48.901Z,4.47
2022-11-17T08:19:19.309Z,4.60
2022-11-17T08:21:51.896Z,4.18
2022-11-17T08:24:22.275Z,3.55
2022-11-17T08:26:54.644Z,4.03
2022-11-17T08:29:26.287Z,3.47
2022-11-17T08:31:56.956Z,3.22
2022-11-17T08:34:27.311Z,3.22
2022-11-17T08:36:57.728Z,2.72
2022-11-17T08:39:28.104Z,3.88
2022-11-17T08:42:01.324Z,3.38
2022-11-17T08:44:32.495Z,5.03
2022-11-17T08:47:04.025Z,3.90
2022-11-17T08:49:34.858Z,4.32
2022-11-17T08:52:06.852Z,4.40
2022-11-17T08:54:37.285Z,4.47
2022-11-17T08:57:08.264Z,5.18
2022-11-17T08:59:39.160Z,4.93
2022-11-17T09:02:09.845Z,5.32
2022-11-17T09:04:43.009Z,6.00
2022-11-17T09:07:13.381Z,4.60
2022-11-17T09:09:44.891Z,4.53
2022-11-17T09:12:15.626Z,5.05
2022-11-17T09:14:46.254Z,6.80
2022-11-17T09:17:17.303Z,7.93
2022-11-17T09:19:47.622Z,6.22
2022-11-17T09:22:21.168Z,7.97
2022-11-17T09:24:51.628Z,11.82
2022-11-17T09:27:22.369Z,9.45
2022-11-17T09:29:53.427Z,9.55
2022-11-17T09:32:23.989Z,12.23
2022-11-17T09:34:54.821Z,11.02
2022-11-17T09:37:27.576Z,13.88
2022-11-17T09:39:58.301Z,14.73
2022-11-17T09:42:32.564Z,11.95
2022-11-17T09:45:17.231Z,10.43
2022-11-17T09:48:34.038Z,11.23
2022-11-17T09:50:59.156Z,9.93
2022-11-17T09:53:41.081Z,9.02
2022-11-17T09:56:13.669Z,9.73
2022-11-17T09:58:48.208Z,9.88
2022-11-17T10:01:20.620Z,13.90
2022-11-17T10:03:52.510Z,15.93
2022-11-17T10:06:30.902Z,32.13
2022-11-17T10:09:31.082Z,18.90
2022-11-17T10:12:22.569Z,9.05
2022-11-17T10:14:54.720Z,9.80
2022-11-17T10:17:25.476Z,18.83
2022-11-17T10:19:58.542Z,11.85
2022-11-17T10:22:37.449Z,10.02
2022-11-17T10:25:41.412Z,10.23
2022-11-17T10:28:28.050Z,11.40
2022-11-17T10:31:02.088Z,11.82
2022-11-17T10:33:50.169Z,10.80
2022-11-17T10:36:33.622Z,12.90
2022-11-17T10:39:04.237Z,10.40
2022-11-17T10:41:43.712Z,11.18
2022-11-17T10:44:26.444Z,12.05
2022-11-17T10:47:02.394Z,13.32
2022-11-17T10:49:36.088Z,12.73
2022-11-17T10:52:19.654Z,10.35
2022-11-17T10:54:50.778Z,11.80
2022-11-17T10:57:26.456Z,10.02
2022-11-17T10:59:58.500Z,9.73
2022-11-17T11:02:40.350Z,7.60
2022-11-17T11:05:14.079Z,7.25
2022-11-17T11:07:46.025Z,7.45
2022-11-17T11:10:19.630Z,7.47
2022-11-17T11:13:14.651Z,6.32
2022-11-17T11:15:46.512Z,5.72
2022-11-17T11:18:20.913Z,6.88
2022-11-17T11:21:18.211Z,4.93
2022-11-17T11:24:15.739Z,3.75
2022-11-17T11:27:07.233Z,3.10
2022-11-17T11:29:51.898Z,3.38
2022-11-17T11:32:54.048Z,3.72
2022-11-17T11:36:03.893Z,3.30
2022-11-17T11:38:43.218Z,3.33
2022-11-17T11:41:22.571Z,3.95
2022-11-17T11:44:31.584Z,3.03
2022-11-17T11:47:33.381Z,4.40
2022-11-17T11:50:25.687Z,4.82
2022-11-17T11:53:05.075Z,5.10
2022-11-17T11:55:37.325Z,3.70
2022-11-17T11:58:19.749Z,3.90
2022-11-17T12:01:13.037Z,3.25
2022-11-17T12:04:26.734Z,4.28
2022-11-17T12:07:08.267Z,3.15
2022-11-17T12:09:44.536Z,3.10
2022-11-17T12:12:21.385Z,3.78
2022-11-17T12:15:20.610Z,3.13
2022-11-17T12:17:54.392Z,4.93
2022-11-17T12:20:41.661Z,5.05
2022-11-17T12:23:30.544Z,6.03
2022-11-17T12:26:02.373Z,3.67
2022-11-17T12:28:42.772Z,3.63
2022-11-17T12:31:26.149Z,3.63
2022-11-17T12:34:03.475Z,2.83
2022-11-17T12:36:35.560Z,3.20
2022-11-17T12:39:09.951Z,3.00
2022-11-17T12:41:53.436Z,3.38
2022-11-17T12:44:44.958Z,3.13
2022-11-17T12:47:31.996Z,3.35
2022-11-17T12:50:14.183Z,4.00
2022-11-17T12:53:27.276Z,3.95
2022-11-17T12:56:06.802Z,3.67
2022-11-17T12:58:55.525Z,3.58
2022-11-17T13:01:47.318Z,4.30
2022-11-17T13:04:49.355Z,3.60
2022-11-17T13:07:23.655Z,2.90
2022-11-17T13:09:59.455Z,3.22
2022-11-17T13:12:34.181Z,3.63
2022-11-17T13:15:07.349Z,3.70
2022-11-17T13:17:46.118Z,3.75
2022-11-17T13:20:28.736Z,3.65
2022-11-17T13:23:07.659Z,4.28
2022-11-17T13:25:38.018Z,3.92
2022-11-17T13:28:29.332Z,3.90
2022-11-17T13:31:01.512Z,3.90
2022-11-17T13:33:39.563Z,3.90
2022-11-17T13:36:18.670Z,3.28
2022-11-17T13:38:51.524Z,3.67
2022-11-17T13:41:25.413Z,3.80
2022-11-17T13:43:56.486Z,3.95
2022-11-17T13:46:27.391Z,3.20
2022-11-17T13:48:58.627Z,3.38
2022-11-17T13:51:43.101Z,3.22
2022-11-17T13:54:13.943Z,3.30
2022-11-17T13:56:47.471Z,2.90
2022-11-17T13:59:32.465Z,3.00
2022-11-17T14:02:17.956Z,2.53
2022-11-17T14:05:17.836Z,2.75
2022-11-17T14:07:49.157Z,2.83
2022-11-17T14:10:29.068Z,2.85
2022-11-17T14:13:04.200Z,2.97
2022-11-17T14:15:40.487Z,3.28
2022-11-17T14:18:43.098Z,3.08
2022-11-17T14:21:19.867Z,3.55
2022-11-17T14:24:04.040Z,3.20
2022-11-17T14:26:35.084Z,3.38
2022-11-17T14:29:05.916Z,4.05
2022-11-17T14:31:36.526Z,3.85
2022-11-17T14:34:07.568Z,3.17
2022-11-17T14:36:40.101Z,3.40
2022-11-17T14:39:16.680Z,3.40
2022-11-17T14:41:48.396Z,4.13
2022-11-17T14:44:19.157Z,3.20
2022-11-17T14:46:49.887Z,2.58
2022-11-17T14:49:20.452Z,2.60
2022-11-17T14:51:51.109Z,3.40
2022-11-17T14:54:21.426Z,3.00
2022-11-17T14:56:52.041Z,2.60
2022-11-17T14:59:22.343Z,3.05
2022-11-17T15:01:54.967Z,2.90
2022-11-17T15:04:49.361Z,4.35
2022-11-17T15:07:17.387Z,3.38
2022-11-17T15:09:48.887Z,4.85
2022-11-17T15:12:20.594Z,4.72
2022-11-17T15:14:51.306Z,9.07
2022-11-17T15:17:21.863Z,10.27
2022-11-17T15:19:52.765Z,5.95
2022-11-17T15:22:24.322Z,4.50
2022-11-17T15:24:57.219Z,4.20
2022-11-17T15:27:27.830Z,3.83
2022-11-17T15:29:58.988Z,3.60
2022-11-17T15:32:29.714Z,3.25
2022-11-17T15:35:16.026Z,3.08
2022-11-17T15:37:49.319Z,3.00
2022-11-17T15:40:20.057Z,3.20
2022-11-17T15:42:54.801Z,4.28
2022-11-17T15:45:25.703Z,3.45
2022-11-17T15:47:56.319Z,2.90
2022-11-17T15:50:28.080Z,2.67
2022-11-17T15:53:04.105Z,2.42
2022-11-17T15:55:38.101Z,2.70
2022-11-17T15:58:08.752Z,2.97
2022-11-17T16:00:41.231Z,2.95
2022-11-17T16:03:11.859Z,2.90
2022-11-17T16:05:42.464Z,2.72
2022-11-17T16:08:15.872Z,2.50
2022-11-17T16:10:46.783Z,2.80
2022-11-17T16:13:18.146Z,3.28
2022-11-17T16:15:53.561Z,3.42
2022-11-17T16:18:24.525Z,4.30
2022-11-17T16:20:57.873Z,5.97
2022-11-17T16:23:31.025Z,5.28
2022-11-17T16:26:03.218Z,5.50
2022-11-17T16:28:33.819Z,5.13
2022-11-17T16:31:21.434Z,4.95
2022-11-17T16:34:02.283Z,6.10
2022-11-17T16:36:38.070Z,7.25
2022-11-17T16:39:12.725Z,6.70
2022-11-17T16:41:46.259Z,6.10
2022-11-17T16:44:18.734Z,5.90
2022-11-17T16:46:50.868Z,5.97
2022-11-17T16:49:22.121Z,6.20
2022-11-17T16:51:57.172Z,5.55
2022-11-17T16:54:28.753Z,6.10
2022-11-17T16:56:59.534Z,5.90
2022-11-17T16:59:29.753Z,6.05
2022-11-17T17:02:00.500Z,4.78
2022-11-17T17:04:31.814Z,5.00
2022-11-17T17:07:02.383Z,5.95
2022-11-17T17:09:34.496Z,6.18
2022-11-17T17:12:06.985Z,5.40
2022-11-17T17:14:37.920Z,4.95
2022-11-17T17:17:08.174Z,4.97
2022-11-17T17:19:39.625Z,4.20
2022-11-17T17:22:10.219Z,4.07
2022-11-17T17:24:40.711Z,4.00
2022-11-17T17:27:11.840Z,4.25
2022-11-17T17:29:43.885Z,4.03
2022-11-17T17:32:14.148Z,4.40
2022-11-17T17:34:44.752Z,4.85
2022-11-17T17:37:15.256Z,4.68
2022-11-17T17:39:45.669Z,5.30
2022-11-17T17:42:16.574Z,6.07
2022-11-17T17:44:47.036Z,6.30
2022-11-17T17:47:17.866Z,6.32
2022-11-17T17:49:48.165Z,6.07
2022-11-17T17:52:19.883Z,5.93
2022-11-17T17:54:51.145Z,5.82
2022-11-17T17:57:29.915Z,7.07
2022-11-17T18:00:08.135Z,7.72
2022-11-17T18:02:38.398Z,9.02
2022-11-17T18:05:09.293Z,9.05
2022-11-17T18:07:40.187Z,9.88
2022-11-17T18:10:11.269Z,8.52
2022-11-17T18:12:45.453Z,9.98
2022-11-17T18:15:16.327Z,9.40
2022-11-17T18:17:47.390Z,8.32
2022-11-17T18:20:18.170Z,8.38
2022-11-17T18:22:48.669Z,7.50
2022-11-17T18:25:21.532Z,7.68
2022-11-17T18:27:53.476Z,7.70
2022-11-17T18:30:26.782Z,7.53
2022-11-17T18:33:02.814Z,6.90
2022-11-17T18:35:35.044Z,7.15
2022-11-17T18:38:05.545Z,7.05
2022-11-17T18:40:37.167Z,7.47
2022-11-17T18:43:07.524Z,7.00
2022-11-17T18:45:39.334Z,6.93
2022-11-17T18:48:10.769Z,6.20
2022-11-17T18:51:17.328Z,5.40
2022-11-17T18:53:36.181Z,5.20
2022-11-17T18:56:17.509Z,5.47
2022-11-17T18:58:48.092Z,5.50
2022-11-17T19:01:26.293Z,5.68
2022-11-17T19:03:59.257Z,5.13
2022-11-17T19:06:30.995Z,4.60
2022-11-17T19:09:02.212Z,4.45
2022-11-17T19:11:35.463Z,4.13
2022-11-17T19:14:06.979Z,4.55
2022-11-17T19:16:44.847Z,4.22
2022-11-17T19:19:15.987Z,4.45
2022-11-17T19:21:49.743Z,4.13
2022-11-17T19:24:20.244Z,4.65
2022-11-17T19:26:50.787Z,4.45
2022-11-17T19:29:22.047Z,4.53
2022-11-17T19:31:53.612Z,4.30
2022-11-17T19:34:24.136Z,4.47
2022-11-17T19:36:54.723Z,5.05
2022-11-17T19:39:26.301Z,5.40
2022-11-17T19:41:56.851Z,5.32
2022-11-17T19:44:29.632Z,4.97
2022-11-17T19:47:00.914Z,5.05
2022-11-17T19:49:31.872Z,4.90
2022-11-17T19:52:02.325Z,5.57
2022-11-17T19:54:33.218Z,5.22
2022-11-17T19:57:04.264Z,6.22
2022-11-17T19:59:34.533Z,5.72
2022-11-17T20:02:04.898Z,5.50
2022-11-17T20:04:35.753Z,6.20
2022-11-17T20:07:06.812Z,8.20
2022-11-17T20:09:40.643Z,8.23
2022-11-17T20:12:12.415Z,8.32
2022-11-17T20:14:43.335Z,7.72
2022-11-17T20:17:14.067Z,7.80
2022-11-17T20:19:44.949Z,7.90
2022-11-17T20:22:18.359Z,7.18
2022-11-17T20:24:49.291Z,6.82
2022-11-17T20:27:19.598Z,6.20
2022-11-17T20:29:50.498Z,6.65
2022-11-17T20:32:20.877Z,6.15
2022-11-17T20:34:51.580Z,6.45
2022-11-17T20:37:23.671Z,5.90
2022-11-17T20:39:54.052Z,6.82
2022-11-17T20:42:24.485Z,6.40
2022-11-17T20:44:55.027Z,6.97
2022-11-17T20:47:28.393Z,6.90
2022-11-17T20:49:58.917Z,7.18
2022-11-17T20:52:29.536Z,7.70
2022-11-17T20:55:01.810Z,6.55
2022-11-17T20:57:32.598Z,6.82
2022-11-17T21:00:02.773Z,8.02
2022-11-17T21:02:36.779Z,7.43
2022-11-17T21:05:08.247Z,7.95
2022-11-17T21:07:39.822Z,7.90
2022-11-17T21:10:11.123Z,7.97
2022-11-17T21:12:42.137Z,8.10
2022-11-17T21:15:13.530Z,7.50
2022-11-17T21:18:02.218Z,8.93
2022-11-17T21:20:35.808Z,8.20
2022-11-17T21:23:06.674Z,9.27
2022-11-17T21:25:39.492Z,8.52
2022-11-17T21:28:10.400Z,9.15
2022-11-17T21:30:43.290Z,9.20
2022-11-17T21:33:14.113Z,8.90
2022-11-17T21:35:45.306Z,9.43
2022-11-17T21:38:18.858Z,13.20
2022-11-17T21:40:49.259Z,16.27
2022-11-17T21:43:20.218Z,13.93
2022-11-17T21:45:50.741Z,13.00
2022-11-17T21:48:21.384Z,11.98
2022-11-17T21:50:54.375Z,13.25
2022-11-17T21:53:25.148Z,13.95
2022-11-17T21:56:02.481Z,13.60
2022-11-17T21:58:34.374Z,12.88
2022-11-17T22:01:10.572Z,12.93
2022-11-17T22:03:42.281Z,13.52
2022-11-17T22:06:19.084Z,13.88
2022-11-17T22:08:50.891Z,14.82
2022-11-17T22:11:39.319Z,13.48
2022-11-17T22:14:14.713Z,17.70
2022-11-17T22:16:50.330Z,15.40
2022-11-17T22:19:22.293Z,17.10
2022-11-17T22:21:54.625Z,34.35
2022-11-17T22:24:25.399Z,27.20
2022-11-17T22:26:56.232Z,24.85
2022-11-17T22:29:26.830Z,21.45
2022-11-17T22:31:57.457Z,21.30
2022-11-17T22:34:28.296Z,20.48
2022-11-17T22:36:59.669Z,19.88
2022-11-17T22:39:30.828Z,18.55
2022-11-17T22:42:01.205Z,18.90
2022-11-17T22:44:31.690Z,18.38
2022-11-17T22:47:03.069Z,19.20
2022-11-17T22:49:34.336Z,18.10
2022-11-17T22:52:04.967Z,17.85
2022-11-17T22:54:36.435Z,19.23
2022-11-17T22:57:07.465Z,17.95
2022-11-17T22:59:38.054Z,19.65
2022-11-17T23:02:08.970Z,20.70
2022-11-17T23:04:42.239Z,21.45
2022-11-17T23:07:13.151Z,19.38
2022-11-17T23:09:43.841Z,18.30
2022-11-17T23:12:15.661Z,18.08
2022-11-17T23:14:46.527Z,18.65
2022-11-17T23:17:19.288Z,17.85
2022-11-17T23:19:50.265Z,19.58
2022-11-17T23:22:21.507Z,19.65
2022-11-17T23:24:52.184Z,20.88
2022-11-17T23:27:23.491Z,21.42
2022-11-17T23:29:57.419Z,18.13
2022-11-17T23:32:28.173Z,18.38
2022-11-17T23:34:58.991Z,17.45
2022-11-17T23:37:30.259Z,17.40
2022-11-17T23:40:00.578Z,15.70
2022-11-17T23:42:40.103Z,15.90
2022-11-17T23:45:14.431Z,14.60
2022-11-17T23:47:45.040Z,14.68
2022-11-17T23:50:16.956Z,16.08
2022-11-17T23:52:47.619Z,15.77
2022-11-17T23:55:19.124Z,25.95
2022-11-17T23:57:50.534Z,36.60
